Terminal Aerodrome Forecast
Issued by NWS

Current Version | Previous Version | Graphics & Text | Print | Product List | Glossary On
Versions: 1 2 3 4 5 6 7 8 9 10 11 12 13 14 15 16 17 18 19 20
000
FTUS41 KILN 300248 AAA
TAFLUK
TAF AMD
KLUK 300248Z 3003/3024 VRB03KT P6SM SCT120
     FM300500 34004KT 5SM BR SCT020
     FM300700 VRB03KT 3SM BR FEW020
     FM301000 VRB03KT 1SM BR SKC
     FM301200 30005KT 4SM BR SKC
     FM301300 30006KT P6SM FEW035
     FM302300 VRB03KT P6SM SKC=

USA.gov is the U.S. government's official web portal to all federal, state and local government web resources and services.